Time;durP1;ratioP1;P1;durP2;ratioP2;P2;SDS_P1;SDS_P2;PMS_P1;PMS_P2;Temp;Humidity;BMP_temperature;BMP_pressure;BME280_temperature;BME280_humidity;BME280_pressure;Samples;Min_cycle;Max_cycle;Signal;HPM_P1;HPM_P2
2023/10/11 00:02:01;;;;;;;18.03;6.37;;;14.20;1.00;;;;;;5010433;28;20455;-71
2023/10/11 00:04:28;;;;;;;20.10;6.23;;;14.10;1.00;;;;;;4994163;28;20438;-71
2023/10/11 00:06:54;;;;;;;11.00;5.73;;;14.10;1.00;;;;;;4998909;28;20439;-71
2023/10/11 00:09:35;;;;;;;15.67;5.37;;;14.20;1.00;;;;;;4998161;28;20434;-71
2023/10/11 00:12:04;;;;;;;10.87;4.97;;;14.10;1.00;;;;;;5007485;28;20433;-71
2023/10/11 00:14:39;;;;;;;15.10;5.37;;;14.10;1.00;;;;;;5012024;28;20422;-71
2023/10/11 00:17:15;;;;;;;18.17;5.90;;;14.10;1.00;;;;;;5012137;28;20455;-76
2023/10/11 00:19:42;;;;;;;13.17;5.50;;;14.10;1.00;;;;;;5013956;28;20820;-76
2023/10/11 00:22:09;;;;;;;17.73;7.20;;;14.10;1.00;;;;;;5032695;28;20381;-76
2023/10/11 00:24:39;;;;;;;13.20;6.03;;;14.10;1.00;;;;;;5020913;28;20383;-76
2023/10/11 00:27:16;;;;;;;13.97;5.40;;;14.10;1.00;;;;;;5010293;28;20770;-76
2023/10/11 00:29:58;;;;;;;9.70;5.50;;;14.10;1.00;;;;;;5031449;28;20411;-76
2023/10/11 00:32:23;;;;;;;11.90;5.43;;;14.00;1.00;;;;;;5010708;28;20450;-71
2023/10/11 00:34:49;;;;;;;22.27;7.93;;;13.90;1.00;;;;;;5001837;28;20435;-70
2023/10/11 00:37:16;;;;;;;18.97;6.90;;;13.90;1.00;;;;;;5011148;28;20198;-71
2023/10/11 00:39:43;;;;;;;11.97;6.00;;;13.90;1.00;;;;;;5009442;28;20165;-71
2023/10/11 00:42:10;;;;;;;16.40;6.23;;;13.90;1.00;;;;;;5008783;28;20420;-71
2023/10/11 00:44:36;;;;;;;19.33;7.20;;;13.90;1.00;;;;;;5013577;28;20927;-71
2023/10/11 00:47:07;;;;;;;48.27;9.17;;;13.90;1.00;;;;;;5015817;28;20471;-71
2023/10/11 00:49:39;;;;;;;16.90;6.57;;;13.80;1.00;;;;;;5017222;28;20401;-71
2023/10/11 00:52:08;;;;;;;16.17;6.23;;;13.80;1.00;;;;;;5014893;28;20437;-71
2023/10/11 00:54:37;;;;;;;14.77;6.37;;;13.70;1.00;;;;;;5019391;28;20758;-71
2023/10/11 00:57:03;;;;;;;25.43;7.20;;;13.70;1.00;;;;;;5008730;28;20918;-71
2023/10/11 00:59:30;;;;;;;15.83;6.10;;;13.60;1.00;;;;;;5030986;28;20462;-71
2023/10/11 01:01:58;;;;;;;14.30;6.10;;;13.60;1.00;;;;;;5029081;28;20415;-76
2023/10/11 01:04:27;;;;;;;11.87;5.70;;;13.50;1.00;;;;;;5014360;28;20820;-76
2023/10/11 01:06:53;;;;;;;13.00;6.00;;;13.50;1.00;;;;;;5015813;28;20404;-76
2023/10/11 01:09:37;;;;;;;34.37;7.10;;;13.40;1.00;;;;;;5028320;28;20407;-76
2023/10/11 01:12:22;;;;;;;16.63;6.77;;;13.30;1.00;;;;;;5029309;28;20188;-76
2023/10/11 01:14:57;;;;;;;11.30;6.03;;;13.30;1.00;;;;;;5007711;28;20423;-76
2023/10/11 01:17:45;;;;;;;14.53;6.20;;;13.30;1.00;;;;;;5029297;28;20850;-76
2023/10/11 01:20:36;;;;;;;27.53;6.80;;;13.30;1.00;;;;;;5016563;28;20525;-77
2023/10/11 01:23:09;;;;;;;15.73;6.37;;;13.20;1.00;;;;;;5022781;28;20949;-76
2023/10/11 01:25:52;;;;;;;18.07;6.63;;;13.20;1.00;;;;;;5006908;28;20440;-77
2023/10/11 01:31:40;;;;;;;13.53;6.43;;;13.20;1.00;;;;;;5000833;28;20721;-71
2023/10/11 01:34:05;;;;;;;23.77;7.60;;;13.10;1.00;;;;;;5027491;28;20428;-71
2023/10/11 01:36:31;;;;;;;17.03;7.20;;;13.00;1.00;;;;;;5027532;28;20196;-71
2023/10/11 01:39:06;;;;;;;17.83;7.30;;;13.00;1.00;;;;;;5003148;28;20182;-71
2023/10/11 01:41:32;;;;;;;25.60;6.87;;;13.00;1.00;;;;;;5004032;28;20463;-71
2023/10/11 01:43:57;;;;;;;15.83;6.10;;;13.00;1.00;;;;;;5001791;28;20452;-71
2023/10/11 01:46:26;;;;;;;14.33;6.37;;;12.90;1.00;;;;;;5012890;28;20184;-71
2023/10/11 01:48:55;;;;;;;16.10;6.87;;;13.00;1.00;;;;;;5012093;28;20204;-70
2023/10/11 01:51:28;;;;;;;23.40;6.97;;;13.00;1.00;;;;;;5014209;28;20443;-70
2023/10/11 01:54:06;;;;;;;17.33;7.43;;;12.90;1.00;;;;;;5010600;28;20450;-71
2023/10/11 01:56:32;;;;;;;14.10;6.83;;;12.90;1.00;;;;;;5016362;28;20524;-71
2023/10/11 01:59:00;;;;;;;16.33;6.60;;;12.80;1.00;;;;;;5008955;28;20427;-71
2023/10/11 02:01:30;;;;;;;16.83;6.47;;;12.80;1.00;;;;;;5019657;28;20430;-72
2023/10/11 02:03:58;;;;;;;34.07;8.93;;;12.80;1.00;;;;;;5022876;28;20402;-70
2023/10/11 02:06:26;;;;;;;30.50;7.00;;;12.70;1.00;;;;;;5008038;28;20410;-70
2023/10/11 02:08:52;;;;;;;24.57;6.77;;;12.70;1.00;;;;;;5017358;28;20455;-70
2023/10/11 02:11:26;;;;;;;21.43;6.50;;;12.70;1.00;;;;;;5017058;28;20848;-71
2023/10/11 02:13:57;;;;;;;14.00;6.30;;;12.60;1.00;;;;;;5017713;28;20522;-71
2023/10/11 02:16:28;;;;;;;25.97;7.63;;;12.50;1.00;;;;;;5024245;28;20795;-71
2023/10/11 02:19:00;;;;;;;16.83;6.07;;;12.50;1.00;;;;;;5022610;28;20812;-71
2023/10/11 02:21:36;;;;;;;19.50;7.47;;;12.50;1.00;;;;;;5005047;28;20442;-71
2023/10/11 02:24:04;;;;;;;16.03;6.70;;;12.40;1.00;;;;;;5012583;28;20410;-70
2023/10/11 02:26:31;;;;;;;16.03;6.63;;;12.40;1.00;;;;;;5012368;28;20511;-71
2023/10/11 02:29:00;;;;;;;18.87;7.90;;;12.40;1.00;;;;;;5011510;28;20857;-71
2023/10/11 02:31:27;;;;;;;15.10;7.57;;;12.40;1.00;;;;;;5015115;28;20545;-71
2023/10/11 02:34:12;;;;;;;22.37;7.37;;;12.40;1.00;;;;;;5033564;28;20928;-76
2023/10/11 02:36:44;;;;;;;18.83;7.50;;;12.30;1.00;;;;;;5026822;28;20458;-76
2023/10/11 02:39:17;;;;;;;19.30;7.90;;;12.30;1.00;;;;;;5006794;28;20437;-76
2023/10/11 02:42:09;;;;;;;26.50;6.80;;;12.30;1.00;;;;;;5014684;28;20457;-76
2023/10/11 02:45:06;;;;;;;31.37;8.70;;;12.30;1.00;;;;;;5027316;28;20399;-76
2023/10/11 02:47:35;;;;;;;18.03;7.77;;;12.20;1.00;;;;;;5027324;28;20427;-76
2023/10/11 02:50:05;;;;;;;17.50;6.73;;;12.30;1.00;;;;;;5009934;28;20438;-76
2023/10/11 02:53:05;;;;;;;13.87;6.23;;;12.20;1.00;;;;;;5014384;28;20428;-76
2023/10/11 02:55:31;;;;;;;12.90;6.20;;;12.20;1.00;;;;;;5025962;28;20839;-76
2023/10/11 02:58:12;;;;;;;19.13;7.40;;;12.20;1.00;;;;;;5020599;28;20506;-76
2023/10/11 03:00:44;;;;;;;16.70;6.80;;;12.20;2.30;;;;;;5015518;28;20424;-76
2023/10/11 03:03:15;;;;;;;19.83;6.77;;;12.20;2.70;;;;;;5020292;28;20430;-71
2023/10/11 03:05:41;;;;;;;17.67;7.13;;;12.20;4.00;;;;;;5013674;28;20435;-70
2023/10/11 03:08:21;;;;;;;19.23;7.30;;;12.20;8.40;;;;;;5011323;28;20490;-71
2023/10/11 03:10:56;;;;;;;17.03;6.13;;;12.30;9.90;;;;;;5005466;28;20431;-71
2023/10/11 03:13:29;;;;;;;17.90;6.57;;;12.30;10.20;;;;;;5009465;28;20440;-71
2023/10/11 03:15:57;;;;;;;15.33;6.53;;;12.30;9.50;;;;;;5000670;28;20544;-71
2023/10/11 03:18:39;;;;;;;22.00;7.90;;;12.20;8.50;;;;;;4997786;28;20751;-70
2023/10/11 03:21:19;;;;;;;19.03;8.13;;;12.20;5.00;;;;;;4999199;28;20556;-71
2023/10/11 03:23:54;;;;;;;21.60;7.87;;;12.20;4.30;;;;;;4996787;28;20431;-71
2023/10/11 03:28:57;;;;;;;15.90;6.97;;;12.20;6.80;;;;;;4999990;28;20448;-71
2023/10/11 03:31:29;;;;;;;26.77;6.60;;;12.20;5.70;;;;;;5019778;28;20903;-70
2023/10/11 03:33:56;;;;;;;17.60;7.13;;;12.20;4.70;;;;;;5023410;28;20473;-70
2023/10/11 03:36:28;;;;;;;21.43;7.23;;;12.30;5.60;;;;;;5005812;28;20956;-71
2023/10/11 03:42:17;;;;;;;13.97;6.67;;;12.10;7.50;;;;;;5010919;28;20402;-80
2023/10/11 03:44:46;;;;;;;20.93;7.40;;;12.10;7.70;;;;;;5003555;28;20429;-79
2023/10/11 03:50:57;;;;;;;14.13;6.73;;;12.10;7.20;;;;;;5021664;28;20396;-80
2023/10/11 03:53:52;;;;;;;16.17;7.20;;;12.10;9.20;;;;;;5011081;28;20522;-79
2023/10/11 03:59:47;;;;;;;20.83;7.23;;;12.00;10.00;;;;;;5006946;28;20423;-79
2023/10/11 04:06:13;;;;;;;13.40;6.37;;;12.10;8.20;;;;;;5005653;28;20415;-81
2023/10/11 04:15:54;;;;;;;17.80;7.00;;;12.00;4.80;;;;;;5019820;28;20870;-81
2023/10/11 04:18:37;;;;;;;14.37;7.37;;;11.90;3.40;;;;;;5034704;28;20450;-82
2023/10/11 04:21:16;;;;;;;14.37;6.40;;;11.90;3.50;;;;;;5016994;28;20420;-80
2023/10/11 04:23:45;;;;;;;21.93;7.30;;;11.90;4.10;;;;;;5002201;28;20989;-79
2023/10/11 04:30:17;;;;;;;18.03;6.20;;;11.90;4.70;;;;;;5016128;28;20441;-79
2023/10/11 04:33:03;;;;;;;21.80;6.50;;;11.80;4.50;;;;;;5019354;28;20432;-80
2023/10/11 04:35:57;;;;;;;15.13;6.30;;;11.80;5.00;;;;;;5016390;28;20466;-79
2023/10/11 04:38:24;;;;;;;15.47;5.97;;;11.80;4.00;;;;;;5001578;28;20428;-79
2023/10/11 04:41:14;;;;;;;15.40;6.30;;;11.80;5.90;;;;;;5013728;28;20469;-79
2023/10/11 04:47:06;;;;;;;17.33;5.63;;;11.70;6.20;;;;;;5012270;28;20447;-79
2023/10/11 04:50:15;;;;;;;15.73;6.30;;;11.60;4.20;;;;;;5019985;28;20425;-79
2023/10/11 04:53:09;;;;;;;12.87;5.70;;;11.60;5.80;;;;;;5005940;28;20423;-78
2023/10/11 04:55:41;;;;;;;13.77;5.93;;;11.50;4.90;;;;;;5016370;28;20491;-79
2023/10/11 05:05:19;;;;;;;22.33;7.97;;;11.40;5.60;;;;;;5014883;28;20435;-79
2023/10/11 05:08:05;;;;;;;18.63;7.23;;;11.40;6.60;;;;;;5000714;28;20486;-80
2023/10/11 05:14:56;;;;;;;18.23;7.30;;;11.40;7.10;;;;;;5009125;28;20412;-80
2023/10/11 05:20:59;;;;;;;15.67;6.00;;;11.30;7.10;;;;;;5024206;28;20502;-81
2023/10/11 05:24:29;;;;;;;18.07;6.07;;;11.20;7.80;;;;;;5004871;28;20425;-82
2023/10/11 05:36:36;;;;;;;22.87;7.33;;;11.10;11.20;;;;;;5000254;28;20449;-80
2023/10/11 05:56:38;;;;;;;15.87;6.60;;;11.10;15.10;;;;;;5012700;28;20870;-80
2023/10/11 05:59:47;;;;;;;38.50;9.57;;;11.10;15.70;;;;;;5017932;28;20511;-81
2023/10/11 06:02:18;;;;;;;21.53;8.00;;;11.10;17.30;;;;;;5023185;28;20433;-81
2023/10/11 06:04:46;;;;;;;15.83;7.40;;;11.10;18.70;;;;;;5012119;28;20427;-79
2023/10/11 06:07:19;;;;;;;18.33;6.53;;;11.30;19.20;;;;;;5014340;28;20781;-82
2023/10/11 06:09:46;;;;;;;14.40;6.33;;;11.20;19.20;;;;;;5012313;28;20549;-80
2023/10/11 06:12:27;;;;;;;14.77;7.10;;;11.20;19.50;;;;;;5013647;28;20458;-80
2023/10/11 06:15:18;;;;;;;22.53;7.20;;;11.30;20.80;;;;;;5015704;28;20431;-79
2023/10/11 06:17:49;;;;;;;21.40;6.70;;;11.30;20.40;;;;;;5011988;28;20459;-80
2023/10/11 06:30:10;;;;;;;26.60;6.60;;;11.40;21.80;;;;;;5007183;28;20457;-81
2023/10/11 06:32:36;;;;;;;30.40;8.27;;;11.50;22.80;;;;;;5012661;28;20993;-80
2023/10/11 06:35:05;;;;;;;24.50;8.80;;;11.50;23.50;;;;;;5013307;28;20440;-80
2023/10/11 06:44:10;;;;;;;17.00;6.93;;;12.00;25.50;;;;;;5021127;28;20414;-80
2023/10/11 06:46:57;;;;;;;22.60;7.07;;;12.50;25.30;;;;;;5007624;28;20511;-80
2023/10/11 06:49:27;;;;;;;36.70;7.60;;;12.00;21.50;;;;;;5018431;28;20449;-82
2023/10/11 06:52:17;;;;;;;18.97;7.80;;;12.20;24.30;;;;;;5030675;28;20941;-81
2023/10/11 06:55:15;;;;;;;16.20;6.80;;;12.10;23.30;;;;;;5014873;28;20424;-81
2023/10/11 07:01:03;;;;;;;18.87;7.50;;;12.30;23.10;;;;;;5029448;28;20414;-81
2023/10/11 07:07:09;;;;;;;20.30;8.63;;;12.50;21.40;;;;;;5007356;28;20494;-79
2023/10/11 07:10:28;;;;;;;16.53;7.73;;;12.60;26.70;;;;;;5012445;28;20515;-80
2023/10/11 07:13:15;;;;;;;15.40;7.63;;;12.70;27.90;;;;;;5012531;28;20466;-80
2023/10/11 07:16:27;;;;;;;24.30;8.97;;;12.80;29.70;;;;;;5012006;28;20515;-80
2023/10/11 07:18:54;;;;;;;14.50;7.37;;;12.90;28.20;;;;;;5026283;28;20427;-80
2023/10/11 07:21:26;;;;;;;23.00;9.30;;;13.10;23.20;;;;;;5011348;28;21094;-79
2023/10/11 07:24:19;;;;;;;22.60;9.53;;;13.30;25.20;;;;;;5009229;28;20419;-80
2023/10/11 07:30:39;;;;;;;14.20;7.43;;;13.40;15.20;;;;;;4990865;28;20440;-81
2023/10/11 07:33:05;;;;;;;22.30;8.93;;;13.60;5.60;;;;;;4994250;28;20904;-80
2023/10/11 07:35:34;;;;;;;15.50;8.10;;;13.80;1.00;;;;;;4995223;28;20535;-81
2023/10/11 07:38:08;;;;;;;19.67;8.30;;;13.90;1.00;;;;;;4991521;28;20256;-81
2023/10/11 07:41:00;;;;;;;17.70;7.07;;;14.10;1.00;;;;;;5001510;28;20420;-81
2023/10/11 07:43:32;;;;;;;32.57;7.40;;;14.20;1.00;;;;;;4989361;28;20428;-81
2023/10/11 07:46:01;;;;;;;14.40;7.20;;;14.30;1.00;;;;;;4985421;28;20431;-81
2023/10/11 07:52:19;;;;;;;19.83;5.93;;;14.60;1.00;;;;;;4996834;28;20468;-80
2023/10/11 07:54:52;;;;;;;18.63;6.30;;;14.80;1.00;;;;;;4991264;28;20398;-80
2023/10/11 07:57:19;;;;;;;16.43;6.50;;;15.00;1.00;;;;;;4998283;28;20805;-82
2023/10/11 07:59:51;;;;;;;19.13;6.67;;;15.00;1.00;;;;;;4997816;28;20915;-81
2023/10/11 08:02:29;;;;;;;22.37;6.43;;;15.20;1.00;;;;;;4980788;28;20488;-82
2023/10/11 08:04:58;;;;;;;17.03;7.07;;;15.30;1.00;;;;;;4996971;28;20390;-81
2023/10/11 08:07:46;;;;;;;19.87;6.30;;;15.30;1.00;;;;;;5026619;28;20507;-82
2023/10/11 08:10:59;;;;;;;14.20;6.00;;;15.50;1.00;;;;;;5035588;28;20463;-82
2023/10/11 08:13:28;;;;;;;16.63;5.97;;;15.60;1.00;;;;;;5021455;28;20419;-81
2023/10/11 08:16:04;;;;;;;20.57;6.70;;;15.80;1.00;;;;;;5015251;28;20461;-81
2023/10/11 08:18:34;;;;;;;17.80;6.17;;;15.90;1.00;;;;;;5021850;28;20462;-82
2023/10/11 08:21:05;;;;;;;16.90;6.10;;;15.90;1.00;;;;;;5016498;28;20949;-82
2023/10/11 08:23:34;;;;;;;23.97;6.57;;;16.10;1.00;;;;;;5003862;28;20512;-81
2023/10/11 08:26:06;;;;;;;25.23;6.13;;;16.20;1.00;;;;;;5049969;28;20394;-81
2023/10/11 08:28:46;;;;;;;20.27;6.10;;;16.30;1.00;;;;;;5027125;28;20810;-81
2023/10/11 08:31:39;;;;;;;41.37;9.40;;;16.50;1.00;;;;;;5014847;28;20411;-82
2023/10/11 08:34:35;;;;;;;18.53;5.40;;;16.60;1.00;;;;;;5003393;28;20439;-82
2023/10/11 08:37:31;;;;;;;10.00;5.30;;;16.70;1.00;;;;;;5022521;28;20980;-81
2023/10/11 08:40:23;;;;;;;33.93;7.33;;;16.90;1.00;;;;;;5028548;28;20892;-80
2023/10/11 08:43:06;;;;;;;29.40;6.17;;;17.00;1.00;;;;;;5021669;28;20409;-81
2023/10/11 08:46:09;;;;;;;17.10;6.10;;;17.10;1.00;;;;;;5018272;28;20994;-81
2023/10/11 08:49:24;;;;;;;14.70;5.20;;;17.20;1.00;;;;;;5009324;28;20392;-81
2023/10/11 08:51:59;;;;;;;13.43;5.60;;;17.40;1.00;;;;;;5010170;28;20438;-81
2023/10/11 08:54:47;;;;;;;15.90;5.33;;;17.50;1.00;;;;;;5015557;28;21029;-81
2023/10/11 08:57:23;;;;;;;11.87;5.20;;;17.70;1.00;;;;;;5013186;28;20462;-81
2023/10/11 08:59:58;;;;;;;24.73;5.77;;;17.90;1.00;;;;;;5015596;28;20410;-81
2023/10/11 09:05:47;;;;;;;12.40;4.70;;;18.10;1.00;;;;;;5022201;28;20437;-82
2023/10/11 09:08:35;;;;;;;10.00;4.97;;;18.10;1.00;;;;;;5027109;28;20433;-82
2023/10/11 09:11:12;;;;;;;11.20;4.90;;;18.20;1.00;;;;;;5006705;28;20515;-80
2023/10/11 09:13:41;;;;;;;12.20;5.40;;;18.40;1.00;;;;;;5032143;28;20835;-81
2023/10/11 09:16:36;;;;;;;12.70;5.57;;;18.50;1.00;;;;;;5014839;28;20820;-81
2023/10/11 09:19:11;;;;;;;13.67;4.87;;;18.70;1.00;;;;;;5004437;28;20429;-81
2023/10/11 09:21:42;;;;;;;16.23;4.77;;;18.70;1.00;;;;;;5025283;28;20481;-81
2023/10/11 09:24:57;;;;;;;17.27;6.40;;;18.80;1.00;;;;;;5019974;28;20443;-81
2023/10/11 09:28:04;;;;;;;18.00;5.20;;;19.00;1.00;;;;;;5004554;28;20528;-82
2023/10/11 09:31:03;;;;;;;12.90;5.10;;;19.20;1.00;;;;;;5017359;28;20432;-81
2023/10/11 09:34:07;;;;;;;10.30;4.77;;;19.40;1.00;;;;;;5004809;28;20413;-82
2023/10/11 09:37:15;;;;;;;9.73;5.13;;;19.50;1.00;;;;;;5010937;28;20480;-83
2023/10/11 09:39:52;;;;;;;11.93;4.70;;;19.60;1.00;;;;;;5019161;28;20487;-82
2023/10/11 09:42:24;;;;;;;14.83;4.73;;;19.60;1.00;;;;;;5026665;28;20428;-83
2023/10/11 09:45:04;;;;;;;14.37;5.00;;;19.60;1.00;;;;;;5009292;28;20504;-83
2023/10/11 09:48:05;;;;;;;11.40;5.17;;;19.70;1.00;;;;;;5023137;28;20505;-83
2023/10/11 09:51:07;;;;;;;6.00;2.80;;;19.90;1.00;;;;;;5026352;28;20460;-83
2023/10/11 09:53:53;;;;;;;5.10;2.83;;;20.10;1.00;;;;;;5013680;28;20508;-82
2023/10/11 09:56:40;;;;;;;16.23;4.77;;;20.30;1.00;;;;;;5013842;28;20465;-83
2023/10/11 09:59:46;;;;;;;15.27;4.27;;;20.30;1.00;;;;;;5012348;28;20415;-83
2023/10/11 10:02:30;;;;;;;12.83;4.60;;;20.20;1.00;;;;;;5011402;28;20438;-83
2023/10/11 10:04:58;;;;;;;13.73;4.10;;;20.30;1.00;;;;;;5024793;28;20462;-83
2023/10/11 10:14:01;;;;;;;16.10;4.80;;;20.50;1.00;;;;;;5021227;28;20409;-82
2023/10/11 10:17:03;;;;;;;12.10;4.77;;;20.50;1.00;;;;;;4929892;29;20947;-81
2023/10/11 10:20:23;;;;;;;19.40;5.03;;;20.60;1.00;;;;;;4953919;28;20436;-81
2023/10/11 10:23:37;;;;;;;14.27;4.47;;;20.70;1.00;;;;;;4940865;29;20463;-81
2023/10/11 10:26:33;;;;;;;8.37;4.00;;;20.80;1.00;;;;;;4936411;29;20457;-84
2023/10/11 10:33:05;;;;;;;13.73;4.17;;;21.10;1.00;;;;;;4929176;29;20459;-84
2023/10/11 10:36:28;;;;;;;10.03;4.23;;;21.20;1.00;;;;;;4931189;29;20522;-83
2023/10/11 10:39:08;;;;;;;21.03;4.53;;;21.30;1.00;;;;;;4860396;29;20446;-81
2023/10/11 10:42:24;;;;;;;12.03;4.50;;;21.40;1.00;;;;;;4873129;29;20821;-81
2023/10/11 10:45:36;;;;;;;8.97;4.40;;;21.50;1.00;;;;;;4869995;29;20926;-81
2023/10/11 10:48:39;;;;;;;15.13;4.50;;;21.60;1.00;;;;;;4878159;29;20419;-81
2023/10/11 10:51:11;;;;;;;8.63;4.50;;;21.80;1.00;;;;;;4860784;29;20466;-81
2023/10/11 10:53:50;;;;;;;11.40;5.37;;;21.90;1.00;;;;;;4858411;29;20470;-81
2023/10/11 10:56:45;;;;;;;19.47;5.20;;;22.00;1.00;;;;;;4873987;29;20468;-81
2023/10/11 10:59:33;;;;;;;8.57;4.10;;;22.10;1.00;;;;;;4923210;29;20517;-81
2023/10/11 11:02:10;;;;;;;12.13;4.00;;;22.30;1.00;;;;;;4913996;29;20413;-81
2023/10/11 11:05:29;;;;;;;10.60;3.83;;;22.20;1.00;;;;;;4922248;29;20433;-81
2023/10/11 11:08:18;;;;;;;15.90;4.53;;;22.30;1.00;;;;;;4911769;29;20430;-84
2023/10/11 11:10:54;;;;;;;15.67;4.10;;;22.40;1.00;;;;;;4906431;29;20939;-83
2023/10/11 11:14:07;;;;;;;18.90;5.20;;;22.60;1.00;;;;;;4897559;28;20430;-82
2023/10/11 11:16:55;;;;;;;14.93;3.90;;;22.60;1.00;;;;;;4980631;28;20511;-81
2023/10/11 11:19:34;;;;;;;9.33;4.43;;;22.80;1.00;;;;;;4992257;28;20426;-82
2023/10/11 11:22:13;;;;;;;20.63;4.80;;;22.80;1.00;;;;;;5003843;28;20449;-73
2023/10/11 11:24:43;;;;;;;12.47;4.23;;;22.90;1.00;;;;;;4998136;28;20454;-73
2023/10/11 11:27:29;;;;;;;21.33;4.67;;;23.10;1.00;;;;;;4995773;28;20410;-73
2023/10/11 11:30:02;;;;;;;14.60;3.77;;;23.30;1.00;;;;;;4995277;28;20476;-72
2023/10/11 11:32:38;;;;;;;19.20;4.53;;;23.30;1.00;;;;;;4994947;28;20891;-73
2023/10/11 11:35:09;;;;;;;16.90;4.07;;;23.50;1.00;;;;;;4995132;28;20946;-73
2023/10/11 11:37:39;;;;;;;14.37;4.43;;;23.50;1.00;;;;;;4991316;28;21053;-73
2023/10/11 11:40:19;;;;;;;19.93;4.50;;;23.60;1.00;;;;;;4991266;28;21009;-73
2023/10/11 11:42:49;;;;;;;11.60;5.00;;;23.60;1.00;;;;;;4996100;28;20432;-72
2023/10/11 11:45:15;;;;;;;17.90;3.70;;;23.70;1.00;;;;;;5009780;28;20438;-73
2023/10/11 11:47:55;;;;;;;12.70;4.17;;;23.80;1.00;;;;;;5007001;28;20950;-73
2023/10/11 11:50:25;;;;;;;13.00;4.20;;;23.90;1.00;;;;;;5017420;28;20862;-73
2023/10/11 11:53:04;;;;;;;16.50;4.40;;;24.00;1.00;;;;;;5017327;28;20991;-81
2023/10/11 11:56:03;;;;;;;11.80;4.37;;;24.10;1.00;;;;;;5011492;28;20438;-81
2023/10/11 11:58:34;;;;;;;30.80;4.27;;;24.30;1.00;;;;;;5030614;28;20418;-81
2023/10/11 12:01:15;;;;;;;12.70;4.50;;;24.30;1.00;;;;;;5008029;28;20924;-81
2023/10/11 12:03:59;;;;;;;11.87;3.73;;;24.50;1.00;;;;;;5013481;28;20444;-81
2023/10/11 12:06:36;;;;;;;13.20;3.67;;;24.60;1.00;;;;;;5015996;28;20420;-81
2023/10/11 12:09:04;;;;;;;9.20;3.97;;;24.80;1.00;;;;;;5012278;28;20442;-73
2023/10/11 12:11:31;;;;;;;11.27;3.80;;;24.90;1.00;;;;;;5013184;28;21061;-73
2023/10/11 12:13:58;;;;;;;13.00;4.70;;;25.10;1.00;;;;;;5004010;28;20773;-72
2023/10/11 12:16:24;;;;;;;18.80;4.53;;;25.10;1.00;;;;;;5016656;28;20515;-72
2023/10/11 12:18:58;;;;;;;18.60;3.87;;;25.30;1.00;;;;;;5012933;28;20435;-73
2023/10/11 12:21:27;;;;;;;12.80;4.07;;;25.50;1.00;;;;;;5012428;28;20440;-72
2023/10/11 12:23:53;;;;;;;14.20;4.23;;;25.60;1.00;;;;;;5009013;28;21764;-72
2023/10/11 12:26:20;;;;;;;15.30;3.77;;;25.60;1.00;;;;;;5016783;28;20464;-72
2023/10/11 12:28:47;;;;;;;13.63;5.33;;;25.70;1.00;;;;;;5017246;28;20183;-73
2023/10/11 12:31:14;;;;;;;12.40;3.67;;;25.70;1.00;;;;;;5010667;28;20455;-73
2023/10/11 12:33:39;;;;;;;11.83;3.50;;;25.80;1.00;;;;;;5020833;28;20429;-73
2023/10/11 12:36:10;;;;;;;16.87;3.70;;;25.80;1.00;;;;;;5010776;28;20455;-73
2023/10/11 12:38:36;;;;;;;35.57;4.07;;;25.90;1.00;;;;;;5018874;28;20669;-73
2023/10/11 12:41:08;;;;;;;14.33;3.37;;;26.00;1.00;;;;;;5013982;28;20518;-73
2023/10/11 12:43:34;;;;;;;11.73;3.47;;;26.10;1.00;;;;;;5015321;28;20843;-73
2023/10/11 12:46:00;;;;;;;18.47;3.67;;;26.00;1.00;;;;;;5028810;28;20419;-73
2023/10/11 12:48:26;;;;;;;14.70;3.70;;;26.00;1.00;;;;;;5011671;28;20500;-73
2023/10/11 12:50:52;;;;;;;14.10;3.70;;;26.00;1.00;;;;;;5014226;28;20441;-73
2023/10/11 12:53:18;;;;;;;14.33;3.60;;;26.10;1.00;;;;;;5015859;28;20444;-73
2023/10/11 12:55:48;;;;;;;9.73;3.40;;;26.30;1.00;;;;;;5015109;28;20850;-73
2023/10/11 12:58:15;;;;;;;25.57;4.20;;;26.40;1.00;;;;;;5021401;28;20174;-73
2023/10/11 13:00:54;;;;;;;9.50;3.30;;;26.40;1.00;;;;;;5013622;28;21322;-73
2023/10/11 13:04:05;;;;;;;11.17;3.20;;;26.50;1.00;;;;;;5016316;28;20414;-73
2023/10/11 13:06:11;;;;;;;10.00;3.47;;;26.60;1.00;;;;;;5018442;28;20432;-73
2023/10/11 13:08:37;;;;;;;18.50;4.10;;;26.60;1.00;;;;;;5013273;28;20439;-73
2023/10/11 13:11:11;;;;;;;12.37;3.40;;;26.60;1.00;;;;;;5012469;28;20730;-73
2023/10/11 13:13:37;;;;;;;12.53;2.90;;;26.60;1.00;;;;;;5005621;28;20421;-73
2023/10/11 13:16:06;;;;;;;15.93;3.50;;;26.70;1.00;;;;;;5002473;28;20542;-73
2023/10/11 13:18:38;;;;;;;10.70;2.93;;;26.70;1.00;;;;;;5013836;28;20500;-73
2023/10/11 13:21:05;;;;;;;8.77;3.50;;;26.80;1.00;;;;;;5031591;28;20432;-73
2023/10/11 13:24:08;;;;;;;18.20;3.63;;;26.80;1.00;;;;;;5034387;28;20500;-81
2023/10/11 13:27:04;;;;;;;11.00;3.27;;;26.70;1.00;;;;;;5011034;28;20791;-80
2023/10/11 13:29:34;;;;;;;7.00;3.13;;;26.70;1.00;;;;;;5014212;28;20947;-79
2023/10/11 13:32:33;;;;;;;8.20;3.40;;;26.60;1.00;;;;;;5002774;28;20456;-78
2023/10/11 13:35:12;;;;;;;9.50;3.13;;;26.80;1.00;;;;;;5023448;28;20511;-79
2023/10/11 13:37:57;;;;;;;8.40;3.47;;;26.90;1.00;;;;;;5017004;28;20960;-85
2023/10/11 13:40:34;;;;;;;9.70;4.17;;;26.90;1.00;;;;;;5007525;28;20421;-83
2023/10/11 13:43:37;;;;;;;10.30;3.33;;;26.90;1.00;;;;;;5014176;28;20979;-84
2023/10/11 13:46:07;;;;;;;12.40;2.90;;;26.90;1.00;;;;;;5020114;28;20489;-84
2023/10/11 13:48:42;;;;;;;14.00;3.40;;;26.90;1.00;;;;;;5012471;28;20438;-84
2023/10/11 13:51:29;;;;;;;12.40;3.33;;;26.80;1.00;;;;;;5018652;28;20436;-85
2023/10/11 13:54:11;;;;;;;11.83;3.60;;;26.70;1.00;;;;;;5033932;28;20444;-80
2023/10/11 13:56:37;;;;;;;10.30;3.20;;;26.70;1.00;;;;;;5007682;28;20537;-80
2023/10/11 13:59:04;;;;;;;12.07;3.63;;;26.80;1.00;;;;;;5011907;28;20558;-80
2023/10/11 14:04:14;;;;;;;12.30;3.67;;;26.70;1.00;;;;;;5009466;28;20562;-82
2023/10/11 14:07:21;;;;;;;15.23;3.70;;;26.80;1.00;;;;;;5027764;28;20413;-81
2023/10/11 14:09:54;;;;;;;12.73;3.33;;;26.90;1.00;;;;;;5022357;28;20406;-81
2023/10/11 14:16:05;;;;;;;21.07;3.80;;;27.00;1.00;;;;;;5002583;28;20469;-81
2023/10/11 14:18:38;;;;;;;16.90;3.53;;;27.10;1.00;;;;;;4974828;28;20784;-80
2023/10/11 14:21:09;;;;;;;14.73;3.40;;;27.10;1.00;;;;;;4994586;28;20849;-82
2023/10/11 14:23:52;;;;;;;9.60;3.80;;;27.10;1.00;;;;;;4976276;28;20439;-82
2023/10/11 14:26:33;;;;;;;22.20;4.20;;;27.20;1.00;;;;;;4984872;28;20823;-82
2023/10/11 14:29:34;;;;;;;9.90;3.87;;;27.20;1.00;;;;;;4992177;28;21284;-82
2023/10/11 14:32:04;;;;;;;14.17;4.00;;;27.10;1.00;;;;;;4991424;28;20595;-80
2023/10/11 14:34:34;;;;;;;19.23;4.17;;;27.10;1.00;;;;;;4994533;28;20433;-80
2023/10/11 14:37:04;;;;;;;11.07;3.37;;;27.20;1.00;;;;;;4992030;28;20875;-83
2023/10/11 14:39:31;;;;;;;16.93;4.13;;;27.20;1.00;;;;;;4974924;28;20443;-81
2023/10/11 14:42:33;;;;;;;24.07;4.30;;;27.20;1.00;;;;;;4993156;28;20837;-82
2023/10/11 14:45:21;;;;;;;9.73;3.37;;;27.10;1.00;;;;;;4991393;28;20425;-81
2023/10/11 14:47:47;;;;;;;13.53;3.80;;;27.10;1.00;;;;;;4992674;28;20563;-81
2023/10/11 14:50:22;;;;;;;10.97;3.33;;;27.10;1.00;;;;;;5007202;28;20951;-81
2023/10/11 14:52:52;;;;;;;13.07;4.20;;;27.10;1.00;;;;;;5013502;28;20428;-80
2023/10/11 14:55:46;;;;;;;17.53;4.80;;;27.00;1.00;;;;;;5016096;28;20509;-81
2023/10/11 14:58:16;;;;;;;19.87;3.87;;;27.10;1.00;;;;;;5009793;28;20468;-80
2023/10/11 15:00:53;;;;;;;7.67;3.53;;;27.10;1.00;;;;;;5009198;28;21029;-80
2023/10/11 15:03:37;;;;;;;5.60;3.27;;;26.90;1.00;;;;;;5014437;28;20439;-80
2023/10/11 15:06:10;;;;;;;21.60;4.67;;;26.80;1.00;;;;;;5010990;28;20522;-80
2023/10/11 15:09:08;;;;;;;13.27;3.53;;;26.80;1.00;;;;;;5010762;28;20998;-79
2023/10/11 15:11:40;;;;;;;15.40;4.07;;;26.80;1.00;;;;;;5028111;28;20521;-86
2023/10/11 15:14:22;;;;;;;12.93;3.43;;;26.70;1.00;;;;;;5021492;28;20422;-87
2023/10/11 15:16:52;;;;;;;19.57;2.80;;;26.40;1.00;;;;;;5009772;28;21228;-85
2023/10/11 15:19:45;;;;;;;12.73;4.17;;;26.30;1.00;;;;;;5022803;28;20420;-83
2023/10/11 15:23:04;;;;;;;12.43;3.53;;;26.30;1.00;;;;;;5017135;28;20528;-83
2023/10/11 15:25:34;;;;;;;13.10;3.60;;;26.30;1.00;;;;;;5005089;28;20803;-82
2023/10/11 15:28:17;;;;;;;17.20;4.00;;;26.20;1.00;;;;;;5013583;28;20938;-81
2023/10/11 15:30:47;;;;;;;10.77;3.70;;;26.50;1.00;;;;;;5012586;28;20409;-81
2023/10/11 15:33:37;;;;;;;8.60;3.27;;;26.60;1.00;;;;;;5012586;28;20421;-81
2023/10/11 15:36:06;;;;;;;10.53;3.33;;;26.70;1.00;;;;;;5016063;28;20496;-81
2023/10/11 15:38:35;;;;;;;15.20;3.33;;;26.70;1.00;;;;;;5024833;28;20423;-80
2023/10/11 15:41:05;;;;;;;15.67;4.00;;;26.30;1.00;;;;;;5014075;28;20428;-84
2023/10/11 15:43:34;;;;;;;11.43;3.50;;;26.30;1.00;;;;;;5011877;28;20842;-83
2023/10/11 15:46:12;;;;;;;12.13;3.77;;;25.90;1.00;;;;;;5007112;28;20475;-83
2023/10/11 15:48:40;;;;;;;10.27;3.00;;;25.80;1.00;;;;;;5015401;28;20435;-85
2023/10/11 15:51:15;;;;;;;8.20;2.73;;;25.20;1.00;;;;;;5008730;28;20535;-84